createdAt,value
2018-01-14T00:00:19.989Z,11.97
2018-01-14T00:02:49.049Z,10.87
2018-01-14T00:05:17.531Z,13.33
2018-01-14T00:07:45.802Z,13.33
2018-01-14T00:10:14.061Z,11.27
2018-01-14T00:12:42.325Z,13.50
2018-01-14T00:15:10.588Z,14.47
2018-01-14T00:17:38.900Z,11.80
2018-01-14T00:20:07.164Z,12.20
2018-01-14T00:22:35.523Z,12.37
2018-01-14T00:25:03.808Z,11.60
2018-01-14T00:27:32.076Z,13.77
2018-01-14T00:30:00.365Z,10.90
2018-01-14T00:32:28.645Z,14.13
2018-01-14T00:34:56.930Z,13.77
2018-01-14T00:37:25.178Z,14.53
2018-01-14T00:39:53.429Z,12.97
2018-01-14T00:42:21.693Z,12.87
2018-01-14T00:44:50.724Z,13.87
2018-01-14T00:47:18.989Z,11.83
2018-01-14T00:49:47.249Z,11.27
2018-01-14T00:52:15.497Z,13.97
2018-01-14T00:54:44.630Z,11.97
2018-01-14T00:57:12.869Z,11.37
2018-01-14T00:59:41.910Z,12.53
2018-01-14T01:02:10.322Z,12.57
2018-01-14T01:04:38.642Z,12.77
2018-01-14T01:07:06.901Z,13.43
2018-01-14T01:09:35.945Z,12.70
2018-01-14T01:12:04.213Z,13.03
2018-01-14T01:14:32.494Z,12.63
2018-01-14T01:17:00.800Z,12.80
2018-01-14T01:19:29.063Z,13.07
2018-01-14T01:21:58.916Z,13.10
2018-01-14T01:24:27.930Z,12.17
2018-01-14T01:26:56.182Z,13.17
2018-01-14T01:29:24.522Z,12.20
2018-01-14T01:31:52.797Z,12.13
2018-01-14T01:34:21.044Z,12.13
2018-01-14T01:36:49.487Z,12.17
2018-01-14T01:39:17.834Z,11.67
2018-01-14T01:41:46.164Z,12.17
2018-01-14T01:44:14.431Z,11.77
2018-01-14T01:46:42.694Z,10.87
2018-01-14T01:49:10.977Z,12.10
2018-01-14T01:51:39.257Z,10.90
2018-01-14T01:54:07.535Z,12.00
2018-01-14T01:56:35.831Z,11.47
2018-01-14T01:59:04.091Z,9.40
2018-01-14T02:01:32.363Z,12.00
2018-01-14T02:04:00.875Z,12.07
2018-01-14T02:06:29.189Z,12.70
2018-01-14T02:08:57.471Z,13.33
2018-01-14T02:11:25.739Z,12.60
2018-01-14T02:13:54.950Z,12.20
2018-01-14T02:16:23.195Z,13.60
2018-01-14T02:18:52.217Z,13.40
2018-01-14T02:21:20.491Z,13.40
2018-01-14T02:23:48.768Z,11.07
2018-01-14T02:26:17.030Z,12.10
2018-01-14T02:28:45.368Z,12.27
2018-01-14T02:31:13.686Z,13.13
2018-01-14T02:33:41.977Z,13.47
2018-01-14T02:36:10.246Z,14.37
2018-01-14T02:38:38.516Z,12.87
2018-01-14T02:41:06.775Z,12.27
2018-01-14T02:43:35.821Z,15.17
2018-01-14T02:46:04.190Z,12.50
2018-01-14T02:48:32.454Z,13.93
2018-01-14T02:51:00.719Z,14.27
2018-01-14T02:53:28.974Z,14.23
2018-01-14T02:55:57.227Z,14.03
2018-01-14T02:58:26.254Z,14.43
2018-01-14T03:00:54.523Z,12.90
2018-01-14T03:03:22.861Z,13.53
2018-01-14T03:05:51.127Z,14.00
2018-01-14T03:08:19.421Z,14.93
2018-01-14T03:10:48.431Z,15.37
2018-01-14T03:13:17.463Z,13.23
2018-01-14T03:15:45.727Z,15.73
2018-01-14T03:18:14.011Z,14.33
2018-01-14T03:20:42.267Z,14.23
2018-01-14T03:23:10.540Z,15.00
2018-01-14T03:25:38.794Z,13.30
2018-01-14T03:28:07.845Z,13.77
2018-01-14T03:30:36.095Z,12.33
2018-01-14T03:33:04.337Z,10.77
2018-01-14T03:35:32.623Z,10.30
2018-01-14T03:38:00.913Z,11.47
2018-01-14T03:40:29.161Z,13.37
2018-01-14T03:42:57.431Z,12.10
2018-01-14T03:45:26.495Z,11.80
2018-01-14T03:47:54.720Z,12.20
2018-01-14T03:50:23.024Z,10.97
2018-01-14T03:52:51.290Z,13.93
2018-01-14T03:55:19.602Z,14.03
2018-01-14T03:57:47.880Z,12.90
2018-01-14T04:00:16.166Z,13.40
2018-01-14T04:02:45.219Z,13.37
2018-01-14T04:05:13.475Z,14.33
2018-01-14T04:07:41.749Z,14.53
2018-01-14T04:10:09.991Z,12.83
2018-01-14T04:12:39.001Z,13.27
2018-01-14T04:15:07.300Z,12.63
2018-01-14T04:17:35.553Z,13.73
2018-01-14T04:20:03.990Z,13.73
2018-01-14T04:22:32.247Z,13.73
2018-01-14T04:25:00.516Z,11.93
2018-01-14T04:27:28.800Z,12.40
2018-01-14T04:29:57.090Z,13.70
2018-01-14T04:32:25.336Z,13.70
2018-01-14T04:34:53.679Z,13.77
2018-01-14T04:37:22.106Z,14.20
2018-01-14T04:39:50.350Z,13.67
2018-01-14T04:42:18.626Z,13.23
2018-01-14T04:44:46.902Z,13.87
2018-01-14T04:47:15.288Z,11.70
2018-01-14T04:49:43.572Z,12.40
2018-01-14T04:52:11.805Z,13.97
2018-01-14T04:54:40.127Z,14.63
2018-01-14T04:57:08.550Z,12.67
2018-01-14T04:59:36.791Z,13.00
2018-01-14T05:02:05.057Z,13.50
2018-01-14T05:04:34.818Z,13.53
2018-01-14T05:07:03.081Z,14.80
2018-01-14T05:09:31.402Z,13.23
2018-01-14T05:11:59.660Z,14.83
2018-01-14T05:14:27.959Z,14.83
2018-01-14T05:16:56.239Z,14.97
2018-01-14T05:19:24.487Z,14.70
2018-01-14T05:21:52.771Z,14.03
2018-01-14T05:24:21.114Z,12.27
2018-01-14T05:26:49.367Z,15.27
2018-01-14T05:29:18.386Z,15.33
2018-01-14T05:31:46.659Z,14.93
2018-01-14T05:34:14.904Z,14.37
2018-01-14T05:36:43.952Z,15.30
2018-01-14T05:39:12.260Z,15.43
2018-01-14T05:41:41.304Z,14.73
2018-01-14T05:44:09.600Z,16.07
2018-01-14T05:46:37.926Z,14.93
2018-01-14T05:49:06.957Z,15.23
2018-01-14T05:51:35.215Z,15.03
2018-01-14T05:54:03.665Z,13.20
2018-01-14T05:56:31.908Z,14.67
2018-01-14T05:59:00.199Z,13.30
2018-01-14T06:01:28.445Z,14.47
2018-01-14T06:03:56.727Z,14.87
2018-01-14T06:06:24.984Z,15.53
2018-01-14T06:08:53.291Z,14.17
2018-01-14T06:11:21.669Z,15.13
2018-01-14T06:13:49.890Z,13.90
2018-01-14T06:16:18.156Z,14.97
2018-01-14T06:18:47.179Z,13.73
2018-01-14T06:21:15.673Z,14.03
2018-01-14T06:23:46.570Z,14.47
2018-01-14T06:26:14.894Z,12.53
2018-01-14T06:28:43.138Z,13.97
2018-01-14T06:31:11.420Z,13.90
2018-01-14T06:33:39.663Z,15.07
2018-01-14T06:36:08.053Z,13.87
2018-01-14T06:38:36.314Z,14.30
2018-01-14T06:41:04.616Z,13.50
2018-01-14T06:43:33.013Z,13.30
2018-01-14T06:46:02.508Z,14.43
2018-01-14T06:48:30.791Z,13.83
2018-01-14T06:50:59.060Z,14.10
2018-01-14T06:53:27.510Z,15.53
2018-01-14T06:55:55.816Z,14.57
2018-01-14T06:58:24.079Z,14.97
2018-01-14T07:00:52.368Z,13.17
2018-01-14T07:03:20.651Z,11.37
2018-01-14T07:05:48.895Z,15.37
2018-01-14T07:08:17.201Z,14.50
2018-01-14T07:10:45.531Z,15.13
2018-01-14T07:13:13.858Z,15.40
2018-01-14T07:15:42.120Z,14.00
2018-01-14T07:18:10.410Z,14.17
2018-01-14T07:20:38.683Z,15.63
2018-01-14T07:23:06.959Z,15.70
2018-01-14T07:25:35.231Z,14.80
2018-01-14T07:28:03.544Z,15.27
2018-01-14T07:30:32.656Z,11.70
2018-01-14T07:33:00.903Z,14.77
2018-01-14T07:35:29.287Z,12.93
2018-01-14T07:37:58.301Z,15.80
2018-01-14T07:40:26.570Z,14.37
2018-01-14T07:42:54.950Z,14.73
2018-01-14T07:45:23.358Z,13.87
2018-01-14T07:47:51.607Z,14.30
2018-01-14T07:50:19.910Z,11.97
2018-01-14T07:52:48.177Z,14.67
2018-01-14T07:55:16.433Z,11.53
2018-01-14T07:57:44.754Z,14.77
2018-01-14T08:00:13.024Z,14.27
2018-01-14T08:02:41.362Z,12.27
2018-01-14T08:05:09.633Z,13.83
2018-01-14T08:07:37.893Z,13.50
2018-01-14T08:10:07.075Z,12.93
2018-01-14T08:12:36.311Z,13.73
2018-01-14T08:15:04.545Z,14.50
2018-01-14T08:17:33.723Z,13.63
2018-01-14T08:20:02.030Z,14.13
2018-01-14T08:22:31.051Z,13.73
2018-01-14T08:24:59.498Z,13.97
2018-01-14T08:27:28.646Z,14.20
2018-01-14T08:29:57.189Z,12.53
2018-01-14T08:32:26.210Z,10.57
2018-01-14T08:34:54.475Z,11.87
2018-01-14T08:37:22.858Z,12.97
2018-01-14T08:39:51.115Z,12.53
2018-01-14T08:42:19.424Z,12.50
2018-01-14T08:44:47.730Z,12.63
2018-01-14T08:47:15.992Z,12.03
2018-01-14T08:49:45.166Z,13.90
2018-01-14T08:52:13.591Z,11.73
2018-01-14T08:54:42.633Z,12.43
2018-01-14T08:57:10.913Z,12.27
2018-01-14T08:59:39.235Z,13.67
2018-01-14T09:02:08.434Z,12.93
2018-01-14T09:04:37.668Z,12.60
2018-01-14T09:07:05.931Z,13.80
2018-01-14T09:09:34.173Z,12.73
2018-01-14T09:12:03.633Z,14.67
2018-01-14T09:14:31.870Z,10.73
2018-01-14T09:17:00.309Z,12.60
2018-01-14T09:19:28.591Z,13.33
2018-01-14T09:21:57.751Z,11.50
2018-01-14T09:24:26.027Z,12.63
2018-01-14T09:26:54.332Z,11.67
2018-01-14T09:29:22.638Z,12.23
2018-01-14T09:31:50.895Z,12.63
2018-01-14T09:34:20.002Z,13.23
2018-01-14T09:36:49.023Z,13.83
2018-01-14T09:39:17.337Z,15.27
2018-01-14T09:41:45.579Z,13.50
2018-01-14T09:44:13.882Z,15.10
2018-01-14T09:46:42.142Z,13.97
2018-01-14T09:49:10.418Z,14.77
2018-01-14T09:51:38.692Z,13.27
2018-01-14T09:54:06.939Z,16.53
2018-01-14T09:56:35.182Z,15.27
2018-01-14T09:59:03.472Z,13.67
2018-01-14T10:01:32.532Z,13.90
2018-01-14T10:04:00.835Z,15.17
2018-01-14T10:06:29.104Z,14.67
2018-01-14T10:08:58.152Z,14.00
2018-01-14T10:11:26.433Z,14.70
2018-01-14T10:13:54.751Z,12.37
2018-01-14T10:16:23.781Z,15.97
2018-01-14T10:18:52.041Z,13.53
2018-01-14T10:21:20.298Z,13.70
2018-01-14T10:23:48.611Z,17.07
2018-01-14T10:26:16.986Z,18.73
2018-01-14T10:28:45.238Z,15.43
2018-01-14T10:31:13.515Z,17.70
2018-01-14T10:33:42.055Z,16.00
2018-01-14T10:36:10.319Z,17.07
2018-01-14T10:38:38.615Z,15.83
2018-01-14T10:41:06.859Z,14.70
2018-01-14T10:43:35.179Z,14.70
2018-01-14T10:46:04.308Z,15.10
2018-01-14T10:48:32.582Z,16.53
2018-01-14T10:51:00.970Z,18.40
2018-01-14T10:53:29.245Z,15.73
2018-01-14T10:55:57.541Z,18.30
2018-01-14T10:58:25.811Z,17.30
2018-01-14T11:00:54.058Z,16.70
2018-01-14T11:03:22.334Z,15.37
2018-01-14T11:05:50.628Z,17.77
2018-01-14T11:08:18.947Z,15.63
2018-01-14T11:10:48.013Z,14.53
2018-01-14T11:13:16.275Z,16.83
2018-01-14T11:15:44.560Z,16.63
2018-01-14T11:18:12.884Z,14.17
2018-01-14T11:20:41.145Z,13.97
2018-01-14T11:23:10.194Z,15.17
2018-01-14T11:25:38.463Z,16.90
2018-01-14T11:28:06.747Z,15.87
2018-01-14T11:30:35.016Z,15.07
2018-01-14T11:33:03.378Z,16.40
2018-01-14T11:35:31.658Z,17.97
2018-01-14T11:37:59.918Z,14.57
2018-01-14T11:40:28.166Z,13.30
2018-01-14T11:42:56.435Z,14.57
2018-01-14T11:45:25.531Z,13.97
2018-01-14T11:47:54.613Z,17.57
2018-01-14T11:50:22.875Z,16.00
2018-01-14T11:52:51.198Z,16.53
2018-01-14T11:55:19.573Z,13.03
2018-01-14T11:57:47.827Z,14.93
2018-01-14T12:00:16.868Z,15.23
2018-01-14T12:02:45.191Z,13.90
2018-01-14T12:05:14.233Z,16.37
2018-01-14T12:07:42.526Z,15.10
2018-01-14T12:10:10.823Z,15.00
2018-01-14T12:12:39.104Z,17.23
2018-01-14T12:15:08.165Z,15.37
2018-01-14T12:17:36.431Z,16.43
2018-01-14T12:20:04.848Z,16.07
2018-01-14T12:22:33.885Z,18.03
2018-01-14T12:25:02.180Z,17.10
2018-01-14T12:27:32.011Z,18.10
2018-01-14T12:30:00.224Z,15.70
2018-01-14T12:32:40.657Z,16.70
2018-01-14T12:35:08.874Z,15.63
2018-01-14T12:37:37.170Z,17.37
2018-01-14T12:40:05.453Z,18.53
2018-01-14T12:42:33.706Z,15.80
2018-01-14T12:45:02.078Z,17.60
2018-01-14T12:47:30.385Z,16.37
2018-01-14T12:49:58.750Z,18.07
2018-01-14T12:52:27.011Z,15.40
2018-01-14T12:54:55.269Z,16.97
2018-01-14T12:57:23.554Z,17.17
2018-01-14T12:59:52.005Z,16.17
2018-01-14T13:02:20.249Z,16.50
2018-01-14T13:04:48.511Z,16.33
2018-01-14T13:07:16.809Z,17.50
2018-01-14T13:09:45.115Z,17.00
2018-01-14T13:12:13.430Z,14.20
2018-01-14T13:14:41.783Z,17.33
2018-01-14T13:17:10.077Z,15.70
2018-01-14T13:19:38.349Z,16.77
2018-01-14T13:22:06.732Z,16.80
2018-01-14T13:24:35.115Z,15.67
2018-01-14T13:27:03.421Z,16.63
2018-01-14T13:29:33.173Z,17.47
2018-01-14T13:32:01.444Z,18.10
2018-01-14T13:34:29.726Z,17.17
2018-01-14T13:36:58.016Z,17.27
2018-01-14T13:39:26.328Z,17.30
2018-01-14T13:41:54.617Z,15.83
2018-01-14T13:44:23.656Z,15.17
2018-01-14T13:46:51.926Z,16.73
2018-01-14T13:49:20.205Z,16.83
2018-01-14T13:51:48.515Z,16.03
2018-01-14T13:54:17.003Z,14.77
2018-01-14T13:56:45.345Z,17.03
2018-01-14T13:59:13.615Z,17.87
2018-01-14T14:01:42.032Z,16.90
2018-01-14T14:04:10.292Z,15.40
2018-01-14T14:06:39.434Z,17.60
2018-01-14T14:09:08.456Z,17.60
2018-01-14T14:11:36.722Z,17.37
2018-01-14T14:14:04.998Z,17.90
2018-01-14T14:16:33.296Z,14.87
2018-01-14T14:19:01.604Z,16.40
2018-01-14T14:21:30.633Z,14.93
2018-01-14T14:23:58.936Z,17.13
2018-01-14T14:26:27.199Z,17.70
2018-01-14T14:28:55.526Z,16.50
2018-01-14T14:31:24.567Z,16.73
2018-01-14T14:33:52.829Z,17.97
2018-01-14T14:36:21.122Z,17.87
2018-01-14T14:38:49.379Z,18.13
2018-01-14T14:41:17.651Z,13.60
2018-01-14T14:43:45.919Z,13.50
2018-01-14T14:46:14.214Z,16.07
2018-01-14T14:48:42.519Z,14.67
2018-01-14T14:51:10.829Z,15.67
2018-01-14T14:53:39.144Z,13.73
2018-01-14T14:56:07.403Z,14.13
2018-01-14T14:58:35.721Z,14.73
2018-01-14T15:01:03.954Z,16.47
2018-01-14T15:03:32.223Z,16.87
2018-01-14T15:06:00.555Z,13.67
2018-01-14T15:08:28.801Z,15.40
2018-01-14T15:10:57.091Z,15.47
2018-01-14T15:13:25.466Z,16.53
2018-01-14T15:15:53.745Z,18.53
2018-01-14T15:18:22.028Z,18.10
2018-01-14T15:20:50.288Z,21.23
2018-01-14T15:23:18.567Z,18.03
2018-01-14T15:25:46.818Z,19.83
2018-01-14T15:28:15.112Z,19.50
2018-01-14T15:30:44.449Z,20.87
2018-01-14T15:33:13.539Z,21.40
2018-01-14T15:35:41.847Z,21.93
2018-01-14T15:38:10.193Z,20.07
2018-01-14T15:40:39.252Z,20.90
2018-01-14T15:43:07.522Z,25.20
2018-01-14T15:45:35.782Z,26.10
2018-01-14T15:48:04.067Z,21.90
2018-01-14T15:50:32.343Z,21.37
2018-01-14T15:53:00.615Z,20.97
2018-01-14T15:55:28.895Z,21.43
2018-01-14T15:57:57.234Z,19.90
2018-01-14T16:00:25.514Z,19.03
2018-01-14T16:02:53.839Z,19.00
2018-01-14T16:05:22.115Z,16.27
2018-01-14T16:07:50.404Z,16.83
2018-01-14T16:10:18.687Z,16.93
2018-01-14T16:12:47.094Z,17.53
2018-01-14T16:15:15.383Z,20.73
2018-01-14T16:17:43.662Z,17.33
2018-01-14T16:20:11.926Z,14.60
2018-01-14T16:22:40.202Z,14.83
2018-01-14T16:25:08.500Z,15.17
2018-01-14T16:27:36.763Z,15.40
2018-01-14T16:30:05.118Z,16.33
2018-01-14T16:32:33.565Z,14.17
2018-01-14T16:35:01.846Z,17.23
2018-01-14T16:37:30.887Z,19.03
2018-01-14T16:39:59.283Z,18.20
2018-01-14T16:42:27.744Z,15.40
2018-01-14T16:44:56.016Z,15.37
2018-01-14T16:47:24.362Z,14.33
2018-01-14T16:49:53.551Z,15.77
2018-01-14T16:52:22.600Z,27.67
2018-01-14T16:54:50.857Z,26.37
2018-01-14T16:57:19.163Z,17.90
2018-01-14T16:59:47.443Z,18.53
2018-01-14T17:02:16.516Z,15.77
2018-01-14T17:04:44.817Z,17.20
2018-01-14T17:07:13.088Z,19.40
2018-01-14T17:09:41.338Z,16.60
2018-01-14T17:12:09.627Z,15.47
2018-01-14T17:14:37.876Z,19.37
2018-01-14T17:17:06.144Z,17.60
2018-01-14T17:19:34.485Z,15.57
2018-01-14T17:22:03.520Z,16.73
2018-01-14T17:24:31.801Z,17.80
2018-01-14T17:27:00.104Z,18.33
2018-01-14T17:29:28.404Z,18.47
2018-01-14T17:31:57.478Z,16.80
2018-01-14T17:34:25.741Z,17.20
2018-01-14T17:36:55.854Z,16.97
2018-01-14T17:39:24.180Z,19.13
2018-01-14T17:41:52.477Z,16.37
2018-01-14T17:44:20.790Z,18.70
2018-01-14T17:46:49.065Z,19.60
2018-01-14T17:49:17.362Z,17.77
2018-01-14T17:51:46.548Z,18.93
2018-01-14T17:54:15.644Z,19.40
2018-01-14T17:56:45.403Z,17.40
2018-01-14T17:59:14.116Z,17.83
2018-01-14T18:01:42.378Z,34.63
2018-01-14T18:04:10.698Z,61.83
2018-01-14T18:06:39.757Z,21.67
2018-01-14T18:09:08.012Z,19.30
2018-01-14T18:11:36.303Z,20.80
2018-01-14T18:14:04.611Z,19.87
2018-01-14T18:16:32.892Z,26.77
2018-01-14T18:19:01.906Z,19.07
2018-01-14T18:21:30.220Z,17.90
2018-01-14T18:23:58.494Z,20.13
2018-01-14T18:26:26.803Z,19.47
2018-01-14T18:28:56.597Z,19.57
2018-01-14T18:31:24.888Z,16.20
2018-01-14T18:33:53.917Z,13.50
2018-01-14T18:36:22.230Z,18.37
2018-01-14T18:38:50.504Z,18.10
2018-01-14T18:41:18.797Z,20.80
2018-01-14T18:43:47.086Z,18.97
2018-01-14T18:46:16.148Z,19.43
2018-01-14T18:48:44.557Z,17.83
2018-01-14T18:51:13.573Z,19.80
2018-01-14T18:53:41.861Z,18.77
2018-01-14T18:56:10.347Z,19.17
2018-01-14T18:58:38.646Z,15.23
2018-01-14T19:01:06.922Z,18.43
2018-01-14T19:03:35.246Z,19.37
2018-01-14T19:06:03.539Z,19.30
2018-01-14T19:08:31.952Z,19.93
2018-01-14T19:11:00.219Z,20.43
2018-01-14T19:13:28.503Z,19.67
2018-01-14T19:15:56.796Z,19.40
2018-01-14T19:18:25.052Z,19.40
2018-01-14T19:20:53.319Z,20.20
2018-01-14T19:23:21.590Z,17.77
2018-01-14T19:25:50.005Z,17.83
2018-01-14T19:28:18.318Z,17.53
2018-01-14T19:30:46.591Z,17.83
2018-01-14T19:33:14.867Z,17.77
2018-01-14T19:35:43.140Z,20.03
2018-01-14T19:38:11.442Z,19.40
2018-01-14T19:40:39.753Z,19.20
2018-01-14T19:43:08.036Z,19.03
2018-01-14T19:45:36.281Z,19.40
2018-01-14T19:48:04.583Z,18.13
2018-01-14T19:50:32.886Z,19.50
2018-01-14T19:53:01.891Z,16.87
2018-01-14T19:55:30.338Z,18.50
2018-01-14T19:57:59.418Z,17.23
2018-01-14T20:00:27.726Z,19.23
2018-01-14T20:02:56.764Z,16.33
2018-01-14T20:05:25.044Z,20.20
2018-01-14T20:07:53.304Z,18.33
2018-01-14T20:10:21.713Z,19.97
2018-01-14T20:12:50.168Z,20.03
2018-01-14T20:15:18.450Z,20.97
2018-01-14T20:17:46.691Z,18.47
2018-01-14T20:20:14.985Z,19.80
2018-01-14T20:22:43.271Z,20.47
2018-01-14T20:25:12.167Z,20.20
2018-01-14T20:27:40.466Z,18.37
2018-01-14T20:30:08.804Z,16.93
2018-01-14T20:32:37.166Z,19.07
2018-01-14T20:35:05.735Z,20.10
2018-01-14T20:37:34.045Z,17.93
2018-01-14T20:40:02.330Z,20.13
2018-01-14T20:42:30.640Z,16.63
2018-01-14T20:44:59.687Z,19.43
2018-01-14T20:47:27.960Z,17.67
2018-01-14T20:49:56.768Z,19.17
2018-01-14T20:52:25.044Z,18.63
2018-01-14T20:54:53.302Z,15.83
2018-01-14T20:57:21.624Z,19.97
2018-01-14T20:59:49.915Z,18.83
2018-01-14T21:02:18.196Z,20.10
2018-01-14T21:04:46.452Z,19.90
2018-01-14T21:07:14.744Z,17.67
2018-01-14T21:09:42.998Z,20.10
2018-01-14T21:12:13.432Z,21.07
2018-01-14T21:14:41.934Z,19.70
2018-01-14T21:17:10.227Z,17.87
2018-01-14T21:19:38.521Z,18.93
2018-01-14T21:22:08.487Z,21.13
2018-01-14T21:24:36.749Z,20.83
2018-01-14T21:27:05.048Z,21.33
2018-01-14T21:29:33.459Z,22.27
2018-01-14T21:32:01.906Z,17.93
2018-01-14T21:34:30.254Z,22.83
2018-01-14T21:36:59.304Z,21.40
2018-01-14T21:39:27.567Z,22.10
2018-01-14T21:41:55.846Z,19.70
2018-01-14T21:44:24.146Z,19.93
2018-01-14T21:46:53.241Z,23.37
2018-01-14T21:49:21.541Z,21.53
2018-01-14T21:51:50.571Z,21.23
2018-01-14T21:54:19.666Z,21.57
2018-01-14T21:56:48.059Z,20.30
2018-01-14T21:59:16.355Z,22.47
2018-01-14T22:01:45.406Z,21.40
2018-01-14T22:04:13.682Z,20.63
2018-01-14T22:06:42.008Z,22.03
2018-01-14T22:09:11.106Z,18.77
2018-01-14T22:11:39.334Z,20.13
2018-01-14T22:14:07.695Z,20.37
2018-01-14T22:16:36.278Z,22.13
2018-01-14T22:19:04.550Z,18.93
2018-01-14T22:21:32.818Z,21.23
2018-01-14T22:24:01.922Z,21.10
2018-01-14T22:26:30.278Z,18.47
2018-01-14T22:28:58.555Z,20.53
2018-01-14T22:31:26.854Z,23.77
2018-01-14T22:33:55.100Z,21.77
2018-01-14T22:36:23.375Z,21.07
2018-01-14T22:38:51.666Z,20.80
2018-01-14T22:41:19.943Z,22.53
2018-01-14T22:43:48.187Z,23.63
2018-01-14T22:46:16.470Z,23.47
2018-01-14T22:48:44.713Z,22.37
2018-01-14T22:51:12.982Z,20.73
2018-01-14T22:53:41.291Z,22.33
2018-01-14T22:56:09.609Z,22.00
2018-01-14T22:58:37.874Z,20.13
2018-01-14T23:01:06.198Z,22.33
2018-01-14T23:03:34.444Z,21.80
2018-01-14T23:06:02.799Z,21.20
2018-01-14T23:08:31.031Z,19.20
2018-01-14T23:11:00.072Z,20.27
2018-01-14T23:13:28.329Z,22.00
2018-01-14T23:15:56.576Z,20.60
2018-01-14T23:18:25.645Z,19.43
2018-01-14T23:20:53.885Z,20.60
2018-01-14T23:23:22.150Z,21.23
2018-01-14T23:25:50.402Z,20.70
2018-01-14T23:28:18.662Z,22.27
2018-01-14T23:30:47.737Z,21.07
2018-01-14T23:33:17.137Z,21.60
2018-01-14T23:35:45.386Z,21.27
2018-01-14T23:38:13.640Z,21.57
2018-01-14T23:40:41.923Z,17.63
2018-01-14T23:43:10.185Z,22.47
2018-01-14T23:45:38.481Z,14.40
2018-01-14T23:48:06.796Z,20.40
2018-01-14T23:50:35.041Z,21.03
2018-01-14T23:53:03.302Z,24.00
2018-01-14T23:55:31.611Z,18.00
2018-01-14T23:57:59.855Z,22.33
